sensor_id;sensor_type;location;lat;lon;timestamp;P1;durP1;ratioP1;P2;durP2;ratioP2
64403;SDS011;50726;54.912;-8.392;2022-12-29T00:02:01;520.70;;;466.45;;
64403;SDS011;50726;54.912;-8.392;2022-12-29T00:04:26;628.03;;;569.42;;
64403;SDS011;50726;54.912;-8.392;2022-12-29T00:06:53;673.10;;;610.28;;
64403;SDS011;50726;54.912;-8.392;2022-12-29T00:09:19;699.20;;;635.80;;
64403;SDS011;50726;54.912;-8.392;2022-12-29T00:11:46;732.10;;;665.60;;
64403;SDS011;50726;54.912;-8.392;2022-12-29T00:14:12;677.78;;;614.75;;
64403;SDS011;50726;54.912;-8.392;2022-12-29T00:16:57;708.20;;;643.00;;
64403;SDS011;50726;54.912;-8.392;2022-12-29T00:19:23;681.15;;;618.55;;
64403;SDS011;50726;54.912;-8.392;2022-12-29T00:22:14;719.70;;;652.72;;
64403;SDS011;50726;54.912;-8.392;2022-12-29T00:24:58;692.30;;;628.10;;
64403;SDS011;50726;54.912;-8.392;2022-12-29T00:27:43;680.42;;;617.50;;
64403;SDS011;50726;54.912;-8.392;2022-12-29T00:30:27;619.30;;;560.13;;
64403;SDS011;50726;54.912;-8.392;2022-12-29T00:33:13;457.63;;;409.92;;
64403;SDS011;50726;54.912;-8.392;2022-12-29T00:38:30;647.33;;;589.22;;
64403;SDS011;50726;54.912;-8.392;2022-12-29T00:41:16;703.28;;;638.67;;
64403;SDS011;50726;54.912;-8.392;2022-12-29T00:44:01;689.85;;;626.05;;
64403;SDS011;50726;54.912;-8.392;2022-12-29T00:46:30;705.65;;;638.65;;
64403;SDS011;50726;54.912;-8.392;2022-12-29T00:48:57;674.40;;;611.38;;
64403;SDS011;50726;54.912;-8.392;2022-12-29T00:51:41;713.55;;;648.35;;
64403;SDS011;50726;54.912;-8.392;2022-12-29T00:54:07;637.30;;;577.42;;
64403;SDS011;50726;54.912;-8.392;2022-12-29T00:56:36;668.07;;;605.40;;
64403;SDS011;50726;54.912;-8.392;2022-12-29T00:59:02;684.20;;;621.83;;
64403;SDS011;50726;54.912;-8.392;2022-12-29T01:01:29;698.55;;;634.83;;
64403;SDS011;50726;54.912;-8.392;2022-12-29T01:03:55;700.25;;;635.97;;
64403;SDS011;50726;54.912;-8.392;2022-12-29T01:06:21;696.70;;;632.72;;
64403;SDS011;50726;54.912;-8.392;2022-12-29T01:08:46;680.03;;;618.35;;
64403;SDS011;50726;54.912;-8.392;2022-12-29T01:11:32;718.95;;;654.72;;
64403;SDS011;50726;54.912;-8.392;2022-12-29T01:13:58;740.38;;;674.35;;
64403;SDS011;50726;54.912;-8.392;2022-12-29T01:16:27;654.83;;;594.00;;
64403;SDS011;50726;54.912;-8.392;2022-12-29T01:18:52;671.28;;;611.78;;
64403;SDS011;50726;54.912;-8.392;2022-12-29T01:21:18;729.75;;;665.30;;
64403;SDS011;50726;54.912;-8.392;2022-12-29T01:23:44;729.63;;;664.95;;
64403;SDS011;50726;54.912;-8.392;2022-12-29T01:26:14;730.40;;;663.92;;
64403;SDS011;50726;54.912;-8.392;2022-12-29T01:28:44;720.47;;;654.25;;
64403;SDS011;50726;54.912;-8.392;2022-12-29T01:31:10;745.22;;;677.33;;
64403;SDS011;50726;54.912;-8.392;2022-12-29T01:33:38;718.40;;;655.05;;
64403;SDS011;50726;54.912;-8.392;2022-12-29T01:36:04;776.28;;;709.13;;
64403;SDS011;50726;54.912;-8.392;2022-12-29T01:38:33;791.10;;;719.90;;
64403;SDS011;50726;54.912;-8.392;2022-12-29T01:41:00;809.17;;;735.83;;
64403;SDS011;50726;54.912;-8.392;2022-12-29T01:43:39;786.47;;;712.35;;
64403;SDS011;50726;54.912;-8.392;2022-12-29T01:46:20;776.10;;;701.70;;
64403;SDS011;50726;54.912;-8.392;2022-12-29T01:49:26;746.33;;;676.45;;
64403;SDS011;50726;54.912;-8.392;2022-12-29T01:54:19;747.58;;;679.40;;
64403;SDS011;50726;54.912;-8.392;2022-12-29T01:59:14;742.83;;;678.83;;
64403;SDS011;50726;54.912;-8.392;2022-12-29T02:02:01;752.80;;;686.55;;
64403;SDS011;50726;54.912;-8.392;2022-12-29T02:04:29;828.08;;;751.83;;
64403;SDS011;50726;54.912;-8.392;2022-12-29T02:07:02;798.13;;;725.22;;
64403;SDS011;50726;54.912;-8.392;2022-12-29T02:09:33;779.40;;;707.67;;
64403;SDS011;50726;54.912;-8.392;2022-12-29T02:11:58;765.28;;;694.67;;
64403;SDS011;50726;54.912;-8.392;2022-12-29T02:14:26;775.95;;;704.60;;
64403;SDS011;50726;54.912;-8.392;2022-12-29T02:22:31;775.95;;;705.78;;
64403;SDS011;50726;54.912;-8.392;2022-12-29T02:28:32;801.40;;;724.47;;
64403;SDS011;50726;54.912;-8.392;2022-12-29T02:31:15;836.38;;;756.47;;
64403;SDS011;50726;54.912;-8.392;2022-12-29T02:37:10;819.17;;;740.13;;
64403;SDS011;50726;54.912;-8.392;2022-12-29T02:39:57;845.80;;;764.63;;
64403;SDS011;50726;54.912;-8.392;2022-12-29T02:42:40;830.95;;;748.85;;
64403;SDS011;50726;54.912;-8.392;2022-12-29T02:45:13;831.20;;;751.55;;
64403;SDS011;50726;54.912;-8.392;2022-12-29T02:47:58;824.95;;;747.40;;
64403;SDS011;50726;54.912;-8.392;2022-12-29T02:51:07;766.97;;;693.05;;
64403;SDS011;50726;54.912;-8.392;2022-12-29T02:53:44;746.85;;;675.17;;
64403;SDS011;50726;54.912;-8.392;2022-12-29T02:56:30;739.95;;;666.28;;
64403;SDS011;50726;54.912;-8.392;2022-12-29T02:58:56;749.20;;;679.03;;
64403;SDS011;50726;54.912;-8.392;2022-12-29T03:12:36;894.35;;;812.13;;
64403;SDS011;50726;54.912;-8.392;2022-12-29T03:15:50;898.95;;;816.60;;
64403;SDS011;50726;54.912;-8.392;2022-12-29T03:23:39;851.13;;;772.92;;
64403;SDS011;50726;54.912;-8.392;2022-12-29T03:26:08;833.77;;;756.67;;
64403;SDS011;50726;54.912;-8.392;2022-12-29T03:28:56;838.42;;;760.20;;
64403;SDS011;50726;54.912;-8.392;2022-12-29T03:31:22;842.10;;;763.70;;
64403;SDS011;50726;54.912;-8.392;2022-12-29T03:33:50;856.63;;;778.70;;
64403;SDS011;50726;54.912;-8.392;2022-12-29T03:36:35;846.92;;;769.92;;
64403;SDS011;50726;54.912;-8.392;2022-12-29T03:39:10;835.65;;;763.13;;
64403;SDS011;50726;54.912;-8.392;2022-12-29T03:41:40;858.08;;;781.53;;
64403;SDS011;50726;54.912;-8.392;2022-12-29T03:44:08;875.33;;;796.00;;
64403;SDS011;50726;54.912;-8.392;2022-12-29T03:46:37;858.25;;;779.65;;
64403;SDS011;50726;54.912;-8.392;2022-12-29T03:49:02;877.90;;;796.72;;
64403;SDS011;50726;54.912;-8.392;2022-12-29T03:51:28;844.63;;;769.83;;
64403;SDS011;50726;54.912;-8.392;2022-12-29T03:53:56;794.50;;;728.95;;
64403;SDS011;50726;54.912;-8.392;2022-12-29T03:56:22;824.33;;;755.53;;
64403;SDS011;50726;54.912;-8.392;2022-12-29T03:58:48;811.50;;;745.55;;
64403;SDS011;50726;54.912;-8.392;2022-12-29T04:01:14;817.17;;;749.60;;
64403;SDS011;50726;54.912;-8.392;2022-12-29T04:03:40;789.90;;;726.40;;
64403;SDS011;50726;54.912;-8.392;2022-12-29T04:06:05;820.83;;;754.30;;
64403;SDS011;50726;54.912;-8.392;2022-12-29T04:08:32;807.53;;;742.90;;
64403;SDS011;50726;54.912;-8.392;2022-12-29T04:10:58;839.13;;;771.58;;
64403;SDS011;50726;54.912;-8.392;2022-12-29T04:13:24;895.65;;;820.95;;
64403;SDS011;50726;54.912;-8.392;2022-12-29T04:15:50;878.92;;;805.50;;
64403;SDS011;50726;54.912;-8.392;2022-12-29T04:18:15;887.00;;;810.22;;
64403;SDS011;50726;54.912;-8.392;2022-12-29T04:23:29;883.42;;;810.75;;
64403;SDS011;50726;54.912;-8.392;2022-12-29T04:25:56;849.40;;;781.13;;
64403;SDS011;50726;54.912;-8.392;2022-12-29T04:28:22;904.95;;;832.03;;
64403;SDS011;50726;54.912;-8.392;2022-12-29T04:30:48;901.38;;;828.13;;
64403;SDS011;50726;54.912;-8.392;2022-12-29T04:33:14;815.15;;;750.75;;
64403;SDS011;50726;54.912;-8.392;2022-12-29T04:35:43;682.88;;;629.45;;
64403;SDS011;50726;54.912;-8.392;2022-12-29T04:38:09;473.77;;;426.92;;
64403;SDS011;50726;54.912;-8.392;2022-12-29T04:40:35;486.17;;;439.23;;
64403;SDS011;50726;54.912;-8.392;2022-12-29T04:43:03;409.65;;;366.13;;
64403;SDS011;50726;54.912;-8.392;2022-12-29T04:45:29;401.88;;;358.95;;
64403;SDS011;50726;54.912;-8.392;2022-12-29T04:47:55;534.92;;;484.55;;
64403;SDS011;50726;54.912;-8.392;2022-12-29T04:50:21;722.40;;;663.58;;
64403;SDS011;50726;54.912;-8.392;2022-12-29T04:55:21;710.70;;;653.25;;
64403;SDS011;50726;54.912;-8.392;2022-12-29T04:57:47;885.97;;;821.22;;
64403;SDS011;50726;54.912;-8.392;2022-12-29T05:00:13;853.70;;;789.28;;
64403;SDS011;50726;54.912;-8.392;2022-12-29T05:02:40;822.08;;;759.45;;
64403;SDS011;50726;54.912;-8.392;2022-12-29T05:05:06;768.72;;;708.38;;
64403;SDS011;50726;54.912;-8.392;2022-12-29T05:07:32;921.85;;;852.72;;
64403;SDS011;50726;54.912;-8.392;2022-12-29T05:09:58;1050.53;;;971.60;;
64403;SDS011;50726;54.912;-8.392;2022-12-29T05:12:24;1058.63;;;971.03;;
64403;SDS011;50726;54.912;-8.392;2022-12-29T05:14:50;1084.07;;;993.28;;
64403;SDS011;50726;54.912;-8.392;2022-12-29T05:17:16;1107.28;;;999.90;;
64403;SDS011;50726;54.912;-8.392;2022-12-29T05:19:42;1047.88;;;957.72;;
64403;SDS011;50726;54.912;-8.392;2022-12-29T05:22:07;989.63;;;908.67;;
64403;SDS011;50726;54.912;-8.392;2022-12-29T05:24:33;1042.30;;;953.83;;
64403;SDS011;50726;54.912;-8.392;2022-12-29T05:27:02;1003.60;;;919.10;;
64403;SDS011;50726;54.912;-8.392;2022-12-29T05:29:28;1149.18;;;999.90;;
64403;SDS011;50726;54.912;-8.392;2022-12-29T05:31:54;868.20;;;801.50;;
64403;SDS011;50726;54.912;-8.392;2022-12-29T05:34:20;646.15;;;592.22;;
64403;SDS011;50726;54.912;-8.392;2022-12-29T05:36:45;860.05;;;793.63;;
64403;SDS011;50726;54.912;-8.392;2022-12-29T05:39:11;640.65;;;586.63;;
64403;SDS011;50726;54.912;-8.392;2022-12-29T05:41:37;741.05;;;684.05;;
64403;SDS011;50726;54.912;-8.392;2022-12-29T05:44:02;767.22;;;708.30;;
64403;SDS011;50726;54.912;-8.392;2022-12-29T05:46:28;889.10;;;821.72;;
64403;SDS011;50726;54.912;-8.392;2022-12-29T05:48:54;875.53;;;806.50;;
64403;SDS011;50726;54.912;-8.392;2022-12-29T05:51:20;896.75;;;827.78;;
64403;SDS011;50726;54.912;-8.392;2022-12-29T05:53:46;900.92;;;832.47;;
64403;SDS011;50726;54.912;-8.392;2022-12-29T05:56:12;971.63;;;896.97;;
64403;SDS011;50726;54.912;-8.392;2022-12-29T06:01:12;1101.20;;;999.90;;
64403;SDS011;50726;54.912;-8.392;2022-12-29T06:03:38;1011.13;;;928.47;;
64403;SDS011;50726;54.912;-8.392;2022-12-29T06:06:04;646.22;;;591.67;;
64403;SDS011;50726;54.912;-8.392;2022-12-29T06:08:30;630.95;;;576.95;;
64403;SDS011;50726;54.912;-8.392;2022-12-29T06:10:55;738.67;;;680.45;;
64403;SDS011;50726;54.912;-8.392;2022-12-29T06:13:24;948.20;;;876.95;;
64403;SDS011;50726;54.912;-8.392;2022-12-29T06:15:49;928.45;;;859.90;;
64403;SDS011;50726;54.912;-8.392;2022-12-29T06:18:16;995.60;;;924.83;;
64403;SDS011;50726;54.912;-8.392;2022-12-29T06:20:42;935.25;;;868.15;;
64403;SDS011;50726;54.912;-8.392;2022-12-29T06:23:07;884.53;;;817.88;;
64403;SDS011;50726;54.912;-8.392;2022-12-29T06:25:33;959.53;;;887.65;;
64403;SDS011;50726;54.912;-8.392;2022-12-29T06:28:02;710.75;;;652.95;;
64403;SDS011;50726;54.912;-8.392;2022-12-29T06:30:28;704.75;;;647.88;;
64403;SDS011;50726;54.912;-8.392;2022-12-29T06:32:53;693.00;;;636.85;;
64403;SDS011;50726;54.912;-8.392;2022-12-29T06:35:19;989.80;;;913.50;;
64403;SDS011;50726;54.912;-8.392;2022-12-29T06:40:20;1287.03;;;999.90;;
64403;SDS011;50726;54.912;-8.392;2022-12-29T06:42:46;1275.47;;;999.90;;
64403;SDS011;50726;54.912;-8.392;2022-12-29T06:45:12;1292.22;;;999.90;;
64403;SDS011;50726;54.912;-8.392;2022-12-29T06:47:41;1999.90;;;999.90;;
64403;SDS011;50726;54.912;-8.392;2022-12-29T06:50:07;1999.90;;;999.90;;
64403;SDS011;50726;54.912;-8.392;2022-12-29T06:55:02;1999.90;;;999.90;;
64403;SDS011;50726;54.912;-8.392;2022-12-29T06:57:29;1999.90;;;999.90;;
64403;SDS011;50726;54.912;-8.392;2022-12-29T06:59:55;1999.90;;;999.90;;
64403;SDS011;50726;54.912;-8.392;2022-12-29T07:02:21;1999.90;;;999.90;;
64403;SDS011;50726;54.912;-8.392;2022-12-29T07:04:53;1999.90;;;999.90;;
64403;SDS011;50726;54.912;-8.392;2022-12-29T07:07:19;1999.90;;;999.90;;
64403;SDS011;50726;54.912;-8.392;2022-12-29T07:09:45;1999.90;;;999.90;;
64403;SDS011;50726;54.912;-8.392;2022-12-29T07:12:12;1999.90;;;999.90;;
64403;SDS011;50726;54.912;-8.392;2022-12-29T07:14:39;1999.90;;;999.90;;
64403;SDS011;50726;54.912;-8.392;2022-12-29T07:17:10;1999.90;;;999.90;;
64403;SDS011;50726;54.912;-8.392;2022-12-29T07:19:41;1999.90;;;976.97;;
64403;SDS011;50726;54.912;-8.392;2022-12-29T07:22:27;1999.90;;;999.90;;
64403;SDS011;50726;54.912;-8.392;2022-12-29T07:24:52;1999.90;;;999.90;;
64403;SDS011;50726;54.912;-8.392;2022-12-29T07:27:18;1999.90;;;999.90;;
64403;SDS011;50726;54.912;-8.392;2022-12-29T07:29:47;1455.25;;;989.28;;
64403;SDS011;50726;54.912;-8.392;2022-12-29T07:32:13;1323.47;;;975.05;;
64403;SDS011;50726;54.912;-8.392;2022-12-29T07:34:40;1211.57;;;915.53;;
64403;SDS011;50726;54.912;-8.392;2022-12-29T07:37:07;1434.38;;;969.88;;
64403;SDS011;50726;54.912;-8.392;2022-12-29T07:39:32;1406.57;;;983.65;;
64403;SDS011;50726;54.912;-8.392;2022-12-29T07:41:58;1446.50;;;984.88;;
64403;SDS011;50726;54.912;-8.392;2022-12-29T07:44:27;1278.43;;;977.20;;
64403;SDS011;50726;54.912;-8.392;2022-12-29T07:46:53;1226.47;;;930.28;;
64403;SDS011;50726;54.912;-8.392;2022-12-29T07:57:04;1020.00;;;900.45;;
64403;SDS011;50726;54.912;-8.392;2022-12-29T07:59:31;1014.45;;;894.63;;
64403;SDS011;50726;54.912;-8.392;2022-12-29T08:01:57;1015.30;;;902.72;;
64403;SDS011;50726;54.912;-8.392;2022-12-29T08:04:23;1010.80;;;899.28;;
64403;SDS011;50726;54.912;-8.392;2022-12-29T08:06:51;976.75;;;874.42;;
64403;SDS011;50726;54.912;-8.392;2022-12-29T08:09:22;1037.07;;;924.65;;
64403;SDS011;50726;54.912;-8.392;2022-12-29T08:11:47;1016.65;;;900.97;;
64403;SDS011;50726;54.912;-8.392;2022-12-29T08:14:13;995.17;;;874.08;;
64403;SDS011;50726;54.912;-8.392;2022-12-29T08:16:52;1040.50;;;893.70;;
64403;SDS011;50726;54.912;-8.392;2022-12-29T08:19:25;1045.78;;;874.22;;
64403;SDS011;50726;54.912;-8.392;2022-12-29T08:21:52;998.75;;;890.17;;
64403;SDS011;50726;54.912;-8.392;2022-12-29T08:24:18;970.15;;;869.08;;
64403;SDS011;50726;54.912;-8.392;2022-12-29T08:39:39;1026.20;;;884.15;;
64403;SDS011;50726;54.912;-8.392;2022-12-29T08:42:05;1138.07;;;930.40;;
64403;SDS011;50726;54.912;-8.392;2022-12-29T08:44:31;1127.70;;;884.08;;
64403;SDS011;50726;54.912;-8.392;2022-12-29T08:46:57;1180.82;;;920.75;;
64403;SDS011;50726;54.912;-8.392;2022-12-29T08:49:22;1093.75;;;909.55;;
64403;SDS011;50726;54.912;-8.392;2022-12-29T08:56:58;1066.28;;;925.53;;
64403;SDS011;50726;54.912;-8.392;2022-12-29T08:59:24;1018.35;;;905.42;;
64403;SDS011;50726;54.912;-8.392;2022-12-29T09:01:50;1034.97;;;915.78;;
64403;SDS011;50726;54.912;-8.392;2022-12-29T09:04:16;1020.85;;;910.47;;
64403;SDS011;50726;54.912;-8.392;2022-12-29T09:06:42;1136.07;;;952.08;;
64403;SDS011;50726;54.912;-8.392;2022-12-29T09:11:37;1240.78;;;917.08;;
64403;SDS011;50726;54.912;-8.392;2022-12-29T09:19:13;1139.95;;;921.75;;
64403;SDS011;50726;54.912;-8.392;2022-12-29T09:21:39;1070.82;;;900.95;;
64403;SDS011;50726;54.912;-8.392;2022-12-29T09:24:05;990.95;;;855.15;;
64403;SDS011;50726;54.912;-8.392;2022-12-29T09:26:30;1033.38;;;882.20;;
64403;SDS011;50726;54.912;-8.392;2022-12-29T09:28:56;1255.63;;;990.90;;
64403;SDS011;50726;54.912;-8.392;2022-12-29T09:31:22;1387.40;;;986.28;;
64403;SDS011;50726;54.912;-8.392;2022-12-29T09:33:50;1639.93;;;999.90;;
64403;SDS011;50726;54.912;-8.392;2022-12-29T09:36:18;1522.75;;;965.85;;
64403;SDS011;50726;54.912;-8.392;2022-12-29T09:38:44;1675.05;;;999.90;;
64403;SDS011;50726;54.912;-8.392;2022-12-29T09:59:20;1999.90;;;999.90;;
64403;SDS011;50726;54.912;-8.392;2022-12-29T10:02:00;1999.90;;;999.90;;
64403;SDS011;50726;54.912;-8.392;2022-12-29T10:04:39;1999.90;;;999.90;;
64403;SDS011;50726;54.912;-8.392;2022-12-29T10:07:16;1711.47;;;999.90;;
64403;SDS011;50726;54.912;-8.392;2022-12-29T10:15:29;1999.90;;;999.90;;
64403;SDS011;50726;54.912;-8.392;2022-12-29T10:20:45;1999.90;;;999.90;;
64403;SDS011;50726;54.912;-8.392;2022-12-29T10:23:29;1886.97;;;999.90;;
64403;SDS011;50726;54.912;-8.392;2022-12-29T10:25:57;1941.97;;;999.90;;
64403;SDS011;50726;54.912;-8.392;2022-12-29T10:30:57;1971.55;;;999.90;;
64403;SDS011;50726;54.912;-8.392;2022-12-29T10:33:31;1910.22;;;999.90;;
64403;SDS011;50726;54.912;-8.392;2022-12-29T10:36:10;1999.90;;;999.90;;
64403;SDS011;50726;54.912;-8.392;2022-12-29T10:41:41;1999.90;;;999.90;;
64403;SDS011;50726;54.912;-8.392;2022-12-29T10:44:24;1999.90;;;999.90;;
64403;SDS011;50726;54.912;-8.392;2022-12-29T10:47:00;1999.90;;;999.90;;
64403;SDS011;50726;54.912;-8.392;2022-12-29T10:49:30;1999.90;;;999.90;;
64403;SDS011;50726;54.912;-8.392;2022-12-29T10:52:02;1999.90;;;999.90;;
64403;SDS011;50726;54.912;-8.392;2022-12-29T10:57:05;1999.90;;;999.90;;
64403;SDS011;50726;54.912;-8.392;2022-12-29T10:59:36;1999.90;;;999.90;;
64403;SDS011;50726;54.912;-8.392;2022-12-29T11:07:20;1999.90;;;999.90;;
64403;SDS011;50726;54.912;-8.392;2022-12-29T11:09:46;1999.90;;;999.90;;
64403;SDS011;50726;54.912;-8.392;2022-12-29T11:12:23;1999.90;;;999.90;;
64403;SDS011;50726;54.912;-8.392;2022-12-29T11:15:01;1917.82;;;999.90;;
64403;SDS011;50726;54.912;-8.392;2022-12-29T11:17:28;1999.90;;;999.90;;
64403;SDS011;50726;54.912;-8.392;2022-12-29T11:20:16;1999.90;;;999.90;;
64403;SDS011;50726;54.912;-8.392;2022-12-29T11:22:55;1925.47;;;999.90;;
64403;SDS011;50726;54.912;-8.392;2022-12-29T11:25:21;1894.30;;;999.90;;
64403;SDS011;50726;54.912;-8.392;2022-12-29T11:27:57;1672.25;;;999.90;;
64403;SDS011;50726;54.912;-8.392;2022-12-29T11:30:37;1184.90;;;853.70;;
64403;SDS011;50726;54.912;-8.392;2022-12-29T11:33:03;1126.30;;;769.78;;
64403;SDS011;50726;54.912;-8.392;2022-12-29T11:35:37;1210.97;;;977.30;;
64403;SDS011;50726;54.912;-8.392;2022-12-29T11:38:05;1256.75;;;981.90;;
64403;SDS011;50726;54.912;-8.392;2022-12-29T11:40:43;1216.60;;;960.83;;
64403;SDS011;50726;54.912;-8.392;2022-12-29T11:43:17;1324.68;;;958.58;;
64403;SDS011;50726;54.912;-8.392;2022-12-29T11:45:51;1317.43;;;950.08;;
64403;SDS011;50726;54.912;-8.392;2022-12-29T11:48:19;1490.70;;;999.90;;
64403;SDS011;50726;54.912;-8.392;2022-12-29T11:53:23;1999.90;;;999.90;;
64403;SDS011;50726;54.912;-8.392;2022-12-29T11:56:06;1999.90;;;999.90;;
64403;SDS011;50726;54.912;-8.392;2022-12-29T11:58:31;1503.72;;;999.90;;
64403;SDS011;50726;54.912;-8.392;2022-12-29T12:04:28;1429.65;;;999.90;;
64403;SDS011;50726;54.912;-8.392;2022-12-29T12:06:57;1307.15;;;999.90;;
64403;SDS011;50726;54.912;-8.392;2022-12-29T12:12:29;1610.40;;;987.28;;
64403;SDS011;50726;54.912;-8.392;2022-12-29T12:14:59;1872.45;;;999.90;;
64403;SDS011;50726;54.912;-8.392;2022-12-29T12:17:51;1714.47;;;999.90;;
64403;SDS011;50726;54.912;-8.392;2022-12-29T12:25:53;1197.53;;;966.17;;
64403;SDS011;50726;54.912;-8.392;2022-12-29T12:31:21;1220.50;;;980.10;;
64403;SDS011;50726;54.912;-8.392;2022-12-29T12:57:17;1304.60;;;880.50;;
64403;SDS011;50726;54.912;-8.392;2022-12-29T13:00:17;1436.50;;;894.20;;
64403;SDS011;50726;54.912;-8.392;2022-12-29T13:11:10;1999.90;;;999.90;;
64403;SDS011;50726;54.912;-8.392;2022-12-29T13:26:42;1614.35;;;999.90;;
64403;SDS011;50726;54.912;-8.392;2022-12-29T13:34:56;1887.82;;;999.90;;
64403;SDS011;50726;54.912;-8.392;2022-12-29T13:37:26;1907.22;;;999.90;;
64403;SDS011;50726;54.912;-8.392;2022-12-29T14:31:49;1999.90;;;999.90;;
64403;SDS011;50726;54.912;-8.392;2022-12-29T14:36:54;1999.90;;;999.90;;
64403;SDS011;50726;54.912;-8.392;2022-12-29T14:39:35;1999.90;;;999.90;;
64403;SDS011;50726;54.912;-8.392;2022-12-29T15:40:33;8.07;;;2.35;;
64403;SDS011;50726;54.912;-8.392;2022-12-29T15:45:49;13.25;;;2.88;;
64403;SDS011;50726;54.912;-8.392;2022-12-29T15:48:18;11.30;;;2.95;;
64403;SDS011;50726;54.912;-8.392;2022-12-29T15:50:46;10.95;;;2.20;;
64403;SDS011;50726;54.912;-8.392;2022-12-29T16:21:40;22.55;;;2.95;;
64403;SDS011;50726;54.912;-8.392;2022-12-29T16:24:17;9.35;;;2.65;;
64403;SDS011;50726;54.912;-8.392;2022-12-29T16:26:49;18.33;;;2.83;;
64403;SDS011;50726;54.912;-8.392;2022-12-29T16:29:27;21.30;;;3.08;;
64403;SDS011;50726;54.912;-8.392;2022-12-29T16:31:56;10.27;;;1.67;;
64403;SDS011;50726;54.912;-8.392;2022-12-29T16:34:31;17.85;;;1.83;;
64403;SDS011;50726;54.912;-8.392;2022-12-29T16:55:30;4.05;;;1.73;;
64403;SDS011;50726;54.912;-8.392;2022-12-29T16:57:57;12.23;;;1.52;;
64403;SDS011;50726;54.912;-8.392;2022-12-29T17:00:27;21.30;;;2.60;;
64403;SDS011;50726;54.912;-8.392;2022-12-29T17:02:59;9.95;;;1.90;;
64403;SDS011;50726;54.912;-8.392;2022-12-29T17:05:27;11.20;;;2.38;;
64403;SDS011;50726;54.912;-8.392;2022-12-29T17:07:53;5.35;;;1.35;;
64403;SDS011;50726;54.912;-8.392;2022-12-29T17:10:20;11.63;;;1.65;;
64403;SDS011;50726;54.912;-8.392;2022-12-29T18:29:19;444.13;;;397.25;;
64403;SDS011;50726;54.912;-8.392;2022-12-29T18:31:45;428.02;;;382.75;;
64403;SDS011;50726;54.912;-8.392;2022-12-29T18:34:14;413.67;;;369.05;;
64403;SDS011;50726;54.912;-8.392;2022-12-29T18:36:43;399.80;;;351.95;;
64403;SDS011;50726;54.912;-8.392;2022-12-29T18:39:10;391.85;;;325.65;;
64403;SDS011;50726;54.912;-8.392;2022-12-29T18:41:40;397.38;;;346.90;;
64403;SDS011;50726;54.912;-8.392;2022-12-29T18:44:09;400.08;;;341.67;;
64403;SDS011;50726;54.912;-8.392;2022-12-29T18:46:35;386.85;;;326.13;;
64403;SDS011;50726;54.912;-8.392;2022-12-29T18:49:01;399.67;;;344.27;;
64403;SDS011;50726;54.912;-8.392;2022-12-29T18:51:27;393.73;;;335.23;;
64403;SDS011;50726;54.912;-8.392;2022-12-29T18:53:55;399.15;;;332.85;;
64403;SDS011;50726;54.912;-8.392;2022-12-29T18:56:22;391.92;;;323.60;;
64403;SDS011;50726;54.912;-8.392;2022-12-29T18:58:51;394.67;;;329.38;;
64403;SDS011;50726;54.912;-8.392;2022-12-29T19:01:20;393.77;;;330.13;;
64403;SDS011;50726;54.912;-8.392;2022-12-29T19:03:48;387.20;;;319.75;;
64403;SDS011;50726;54.912;-8.392;2022-12-29T19:06:14;381.25;;;325.38;;
64403;SDS011;50726;54.912;-8.392;2022-12-29T19:08:41;384.60;;;317.85;;
64403;SDS011;50726;54.912;-8.392;2022-12-29T19:11:06;373.70;;;319.38;;
64403;SDS011;50726;54.912;-8.392;2022-12-29T19:13:35;362.90;;;301.85;;
64403;SDS011;50726;54.912;-8.392;2022-12-29T19:16:01;373.95;;;300.98;;
64403;SDS011;50726;54.912;-8.392;2022-12-29T19:18:27;370.67;;;305.45;;
64403;SDS011;50726;54.912;-8.392;2022-12-29T19:20:53;372.00;;;305.65;;
64403;SDS011;50726;54.912;-8.392;2022-12-29T19:23:24;379.23;;;309.95;;
64403;SDS011;50726;54.912;-8.392;2022-12-29T19:25:50;384.90;;;315.17;;
64403;SDS011;50726;54.912;-8.392;2022-12-29T19:28:22;390.50;;;306.45;;
64403;SDS011;50726;54.912;-8.392;2022-12-29T19:30:50;376.88;;;305.30;;
64403;SDS011;50726;54.912;-8.392;2022-12-29T19:33:21;398.55;;;312.02;;
64403;SDS011;50726;54.912;-8.392;2022-12-29T19:35:48;374.77;;;312.17;;
64403;SDS011;50726;54.912;-8.392;2022-12-29T19:38:15;401.73;;;329.02;;
64403;SDS011;50726;54.912;-8.392;2022-12-29T19:40:47;387.55;;;329.35;;
64403;SDS011;50726;54.912;-8.392;2022-12-29T19:43:15;398.25;;;327.42;;
64403;SDS011;50726;54.912;-8.392;2022-12-29T19:45:44;402.30;;;341.77;;
64403;SDS011;50726;54.912;-8.392;2022-12-29T19:48:14;388.48;;;336.70;;
64403;SDS011;50726;54.912;-8.392;2022-12-29T19:50:43;400.27;;;349.48;;
64403;SDS011;50726;54.912;-8.392;2022-12-29T19:53:09;406.88;;;360.33;;
64403;SDS011;50726;54.912;-8.392;2022-12-29T19:55:34;396.23;;;341.45;;
64403;SDS011;50726;54.912;-8.392;2022-12-29T19:58:00;398.45;;;335.63;;
64403;SDS011;50726;54.912;-8.392;2022-12-29T20:00:26;397.17;;;335.35;;
64403;SDS011;50726;54.912;-8.392;2022-12-29T20:02:52;403.02;;;333.73;;
64403;SDS011;50726;54.912;-8.392;2022-12-29T20:05:18;389.15;;;328.90;;
64403;SDS011;50726;54.912;-8.392;2022-12-29T20:07:44;405.00;;;327.05;;
64403;SDS011;50726;54.912;-8.392;2022-12-29T20:10:09;399.98;;;321.10;;
64403;SDS011;50726;54.912;-8.392;2022-12-29T20:12:38;395.67;;;322.23;;
64403;SDS011;50726;54.912;-8.392;2022-12-29T20:15:05;395.23;;;316.35;;
64403;SDS011;50726;54.912;-8.392;2022-12-29T20:17:32;398.00;;;328.33;;
64403;SDS011;50726;54.912;-8.392;2022-12-29T20:19:58;392.75;;;318.85;;
64403;SDS011;50726;54.912;-8.392;2022-12-29T20:22:24;384.25;;;313.80;;
64403;SDS011;50726;54.912;-8.392;2022-12-29T20:24:50;387.92;;;325.20;;
64403;SDS011;50726;54.912;-8.392;2022-12-29T20:27:16;390.17;;;321.73;;
64403;SDS011;50726;54.912;-8.392;2022-12-29T20:29:44;389.95;;;318.67;;
64403;SDS011;50726;54.912;-8.392;2022-12-29T20:34:44;383.67;;;280.10;;
64403;SDS011;50726;54.912;-8.392;2022-12-29T20:37:11;389.17;;;281.83;;
64403;SDS011;50726;54.912;-8.392;2022-12-29T20:39:39;378.80;;;277.23;;
64403;SDS011;50726;54.912;-8.392;2022-12-29T20:42:06;370.73;;;264.95;;
64403;SDS011;50726;54.912;-8.392;2022-12-29T20:44:32;366.02;;;259.20;;
64403;SDS011;50726;54.912;-8.392;2022-12-29T20:46:59;378.15;;;258.80;;
64403;SDS011;50726;54.912;-8.392;2022-12-29T20:49:26;356.30;;;262.30;;
64403;SDS011;50726;54.912;-8.392;2022-12-29T20:51:53;358.80;;;257.48;;
64403;SDS011;50726;54.912;-8.392;2022-12-29T20:54:19;351.00;;;248.90;;
64403;SDS011;50726;54.912;-8.392;2022-12-29T20:56:45;360.48;;;250.45;;
64403;SDS011;50726;54.912;-8.392;2022-12-29T20:59:11;359.10;;;243.55;;
64403;SDS011;50726;54.912;-8.392;2022-12-29T21:01:37;351.88;;;243.73;;
64403;SDS011;50726;54.912;-8.392;2022-12-29T21:04:04;347.50;;;248.20;;
64403;SDS011;50726;54.912;-8.392;2022-12-29T21:06:30;358.98;;;250.70;;
64403;SDS011;50726;54.912;-8.392;2022-12-29T21:08:57;342.17;;;239.30;;